sensor_id;sensor_type;location;lat;lon;timestamp;temperature;humidity
52030;DHT22;38043;53.224;6.580;2022-07-29T00:00:50;14.80;99.90
52030;DHT22;38043;53.224;6.580;2022-07-29T00:03:15;14.70;99.90
52030;DHT22;38043;53.224;6.580;2022-07-29T00:05:44;14.70;99.90
52030;DHT22;38043;53.224;6.580;2022-07-29T00:08:10;14.70;99.90
52030;DHT22;38043;53.224;6.580;2022-07-29T00:10:35;14.80;99.90
52030;DHT22;38043;53.224;6.580;2022-07-29T00:13:01;14.80;99.90
52030;DHT22;38043;53.224;6.580;2022-07-29T00:15:30;14.80;99.90
52030;DHT22;38043;53.224;6.580;2022-07-29T00:17:56;14.80;99.90
52030;DHT22;38043;53.224;6.580;2022-07-29T00:20:22;14.80;99.90
52030;DHT22;38043;53.224;6.580;2022-07-29T00:22:47;14.80;99.90
52030;DHT22;38043;53.224;6.580;2022-07-29T00:25:13;14.80;99.90
52030;DHT22;38043;53.224;6.580;2022-07-29T00:27:39;14.80;99.90
52030;DHT22;38043;53.224;6.580;2022-07-29T00:30:09;14.80;99.90
52030;DHT22;38043;53.224;6.580;2022-07-29T00:32:35;14.80;99.90
52030;DHT22;38043;53.224;6.580;2022-07-29T00:35:00;14.90;99.90
52030;DHT22;38043;53.224;6.580;2022-07-29T00:37:45;14.80;99.90
52030;DHT22;38043;53.224;6.580;2022-07-29T00:40:11;14.90;99.90
52030;DHT22;38043;53.224;6.580;2022-07-29T00:42:49;14.90;99.90
52030;DHT22;38043;53.224;6.580;2022-07-29T00:45:15;14.80;99.90
52030;DHT22;38043;53.224;6.580;2022-07-29T00:47:41;14.90;99.90
52030;DHT22;38043;53.224;6.580;2022-07-29T00:50:09;14.90;99.90
52030;DHT22;38043;53.224;6.580;2022-07-29T00:52:37;14.90;99.90
52030;DHT22;38043;53.224;6.580;2022-07-29T00:55:05;14.90;99.90
52030;DHT22;38043;53.224;6.580;2022-07-29T00:57:31;14.90;99.90
52030;DHT22;38043;53.224;6.580;2022-07-29T00:59:57;14.90;99.90
52030;DHT22;38043;53.224;6.580;2022-07-29T01:02:22;14.90;99.90
52030;DHT22;38043;53.224;6.580;2022-07-29T01:04:48;15.00;99.90
52030;DHT22;38043;53.224;6.580;2022-07-29T01:07:17;14.90;99.90
52030;DHT22;38043;53.224;6.580;2022-07-29T01:09:43;14.90;99.90
52030;DHT22;38043;53.224;6.580;2022-07-29T01:12:11;14.90;99.90
52030;DHT22;38043;53.224;6.580;2022-07-29T01:14:39;15.00;99.90
52030;DHT22;38043;53.224;6.580;2022-07-29T01:17:23;15.00;99.90
52030;DHT22;38043;53.224;6.580;2022-07-29T01:20:02;15.00;99.90
52030;DHT22;38043;53.224;6.580;2022-07-29T01:25:29;15.00;99.90
52030;DHT22;38043;53.224;6.580;2022-07-29T01:31:00;15.00;99.90
52030;DHT22;38043;53.224;6.580;2022-07-29T01:33:29;15.00;99.90
52030;DHT22;38043;53.224;6.580;2022-07-29T01:36:18;15.00;99.90
52030;DHT22;38043;53.224;6.580;2022-07-29T01:39:06;15.10;99.90
52030;DHT22;38043;53.224;6.580;2022-07-29T01:41:39;15.00;99.90
52030;DHT22;38043;53.224;6.580;2022-07-29T01:44:20;15.00;99.90
52030;DHT22;38043;53.224;6.580;2022-07-29T01:47:00;15.00;99.90
52030;DHT22;38043;53.224;6.580;2022-07-29T01:49:33;15.00;99.90
52030;DHT22;38043;53.224;6.580;2022-07-29T01:52:05;15.00;99.90
52030;DHT22;38043;53.224;6.580;2022-07-29T01:54:39;15.00;99.90
52030;DHT22;38043;53.224;6.580;2022-07-29T01:57:10;15.00;99.90
52030;DHT22;38043;53.224;6.580;2022-07-29T01:59:38;15.00;99.90
52030;DHT22;38043;53.224;6.580;2022-07-29T02:02:08;15.00;99.90
52030;DHT22;38043;53.224;6.580;2022-07-29T02:04:36;15.00;99.90
52030;DHT22;38043;53.224;6.580;2022-07-29T02:07:05;15.00;99.90
52030;DHT22;38043;53.224;6.580;2022-07-29T02:09:35;15.00;99.90
52030;DHT22;38043;53.224;6.580;2022-07-29T02:12:06;15.00;99.90
52030;DHT22;38043;53.224;6.580;2022-07-29T02:14:40;15.00;99.90
52030;DHT22;38043;53.224;6.580;2022-07-29T02:17:08;15.00;99.90
52030;DHT22;38043;53.224;6.580;2022-07-29T02:19:39;15.00;99.90
52030;DHT22;38043;53.224;6.580;2022-07-29T02:22:06;15.00;99.90
52030;DHT22;38043;53.224;6.580;2022-07-29T02:24:35;15.00;99.90
52030;DHT22;38043;53.224;6.580;2022-07-29T02:27:03;15.00;99.90
52030;DHT22;38043;53.224;6.580;2022-07-29T02:29:30;15.00;99.90
52030;DHT22;38043;53.224;6.580;2022-07-29T02:31:58;15.00;99.90
52030;DHT22;38043;53.224;6.580;2022-07-29T02:34:25;15.00;99.90
52030;DHT22;38043;53.224;6.580;2022-07-29T02:36:52;15.00;99.90
52030;DHT22;38043;53.224;6.580;2022-07-29T02:39:19;15.10;99.90
52030;DHT22;38043;53.224;6.580;2022-07-29T02:41:51;15.00;99.90
52030;DHT22;38043;53.224;6.580;2022-07-29T02:44:19;15.00;99.90
52030;DHT22;38043;53.224;6.580;2022-07-29T02:49:52;15.00;99.90
52030;DHT22;38043;53.224;6.580;2022-07-29T02:52:36;15.00;99.90
52030;DHT22;38043;53.224;6.580;2022-07-29T02:55:34;15.10;99.90
52030;DHT22;38043;53.224;6.580;2022-07-29T02:58:05;15.10;99.90
52030;DHT22;38043;53.224;6.580;2022-07-29T03:00:39;15.00;99.90
52030;DHT22;38043;53.224;6.580;2022-07-29T03:03:09;15.00;99.90
52030;DHT22;38043;53.224;6.580;2022-07-29T03:05:40;15.00;99.90
52030;DHT22;38043;53.224;6.580;2022-07-29T03:08:09;15.00;99.90
52030;DHT22;38043;53.224;6.580;2022-07-29T03:10:37;15.00;99.90
52030;DHT22;38043;53.224;6.580;2022-07-29T03:13:09;15.00;99.90
52030;DHT22;38043;53.224;6.580;2022-07-29T03:15:35;15.00;99.90
52030;DHT22;38043;53.224;6.580;2022-07-29T03:18:02;15.00;99.90
52030;DHT22;38043;53.224;6.580;2022-07-29T03:20:28;15.00;99.90
52030;DHT22;38043;53.224;6.580;2022-07-29T03:22:54;15.00;99.90
52030;DHT22;38043;53.224;6.580;2022-07-29T03:25:20;15.00;99.90
52030;DHT22;38043;53.224;6.580;2022-07-29T03:27:46;15.00;99.90
52030;DHT22;38043;53.224;6.580;2022-07-29T03:30:13;15.00;99.90
52030;DHT22;38043;53.224;6.580;2022-07-29T03:32:40;15.00;99.90
52030;DHT22;38043;53.224;6.580;2022-07-29T03:35:07;15.00;99.90
52030;DHT22;38043;53.224;6.580;2022-07-29T03:37:33;14.80;99.90
52030;DHT22;38043;53.224;6.580;2022-07-29T03:40:02;14.90;99.90
52030;DHT22;38043;53.224;6.580;2022-07-29T03:42:31;15.00;99.90
52030;DHT22;38043;53.224;6.580;2022-07-29T03:45:05;15.00;99.90
52030;DHT22;38043;53.224;6.580;2022-07-29T03:47:33;14.90;99.90
52030;DHT22;38043;53.224;6.580;2022-07-29T03:50:05;14.90;99.90
52030;DHT22;38043;53.224;6.580;2022-07-29T03:52:31;14.90;99.90
52030;DHT22;38043;53.224;6.580;2022-07-29T03:54:57;15.00;99.90
52030;DHT22;38043;53.224;6.580;2022-07-29T03:57:25;15.00;99.90
52030;DHT22;38043;53.224;6.580;2022-07-29T03:59:53;14.90;99.90
52030;DHT22;38043;53.224;6.580;2022-07-29T04:02:22;14.90;99.90
52030;DHT22;38043;53.224;6.580;2022-07-29T04:04:48;14.90;99.90
52030;DHT22;38043;53.224;6.580;2022-07-29T04:07:15;14.90;99.90
52030;DHT22;38043;53.224;6.580;2022-07-29T04:09:43;14.90;99.90
52030;DHT22;38043;53.224;6.580;2022-07-29T04:12:09;14.90;99.90
52030;DHT22;38043;53.224;6.580;2022-07-29T04:14:35;14.90;99.90
52030;DHT22;38043;53.224;6.580;2022-07-29T04:17:02;14.90;99.90
52030;DHT22;38043;53.224;6.580;2022-07-29T04:19:28;14.90;99.90
52030;DHT22;38043;53.224;6.580;2022-07-29T04:21:54;14.90;99.90
52030;DHT22;38043;53.224;6.580;2022-07-29T04:24:22;14.90;99.90
52030;DHT22;38043;53.224;6.580;2022-07-29T04:26:48;14.90;99.90
52030;DHT22;38043;53.224;6.580;2022-07-29T04:29:14;14.90;99.90
52030;DHT22;38043;53.224;6.580;2022-07-29T04:31:41;14.80;99.90
52030;DHT22;38043;53.224;6.580;2022-07-29T04:34:07;15.00;99.90
52030;DHT22;38043;53.224;6.580;2022-07-29T04:36:32;15.00;99.90
52030;DHT22;38043;53.224;6.580;2022-07-29T04:38:58;14.90;99.90
52030;DHT22;38043;53.224;6.580;2022-07-29T04:41:24;14.90;99.90
52030;DHT22;38043;53.224;6.580;2022-07-29T04:43:50;14.90;99.90
52030;DHT22;38043;53.224;6.580;2022-07-29T04:46:16;14.90;99.90
52030;DHT22;38043;53.224;6.580;2022-07-29T04:48:41;15.00;99.90
52030;DHT22;38043;53.224;6.580;2022-07-29T04:51:07;15.00;99.90
52030;DHT22;38043;53.224;6.580;2022-07-29T04:53:33;15.00;99.90
52030;DHT22;38043;53.224;6.580;2022-07-29T04:55:59;15.00;99.90
52030;DHT22;38043;53.224;6.580;2022-07-29T04:58:24;15.00;99.90
52030;DHT22;38043;53.224;6.580;2022-07-29T05:00:50;15.00;99.90
52030;DHT22;38043;53.224;6.580;2022-07-29T05:03:16;15.00;99.90
52030;DHT22;38043;53.224;6.580;2022-07-29T05:05:42;15.00;99.90
52030;DHT22;38043;53.224;6.580;2022-07-29T05:08:08;15.10;99.90
52030;DHT22;38043;53.224;6.580;2022-07-29T05:10:34;15.10;99.90
52030;DHT22;38043;53.224;6.580;2022-07-29T05:13:04;15.10;99.90
52030;DHT22;38043;53.224;6.580;2022-07-29T05:15:34;15.10;99.90
52030;DHT22;38043;53.224;6.580;2022-07-29T05:18:03;15.20;99.90
52030;DHT22;38043;53.224;6.580;2022-07-29T05:20:30;15.10;99.90
52030;DHT22;38043;53.224;6.580;2022-07-29T05:23:01;15.10;99.90
52030;DHT22;38043;53.224;6.580;2022-07-29T05:25:28;15.20;99.90
52030;DHT22;38043;53.224;6.580;2022-07-29T05:27:54;15.20;99.90
52030;DHT22;38043;53.224;6.580;2022-07-29T05:30:23;15.20;99.90
52030;DHT22;38043;53.224;6.580;2022-07-29T05:32:49;15.20;99.90
52030;DHT22;38043;53.224;6.580;2022-07-29T05:35:15;15.30;99.90
52030;DHT22;38043;53.224;6.580;2022-07-29T05:37:41;15.30;99.90
52030;DHT22;38043;53.224;6.580;2022-07-29T05:40:08;15.40;99.90
52030;DHT22;38043;53.224;6.580;2022-07-29T05:42:34;15.40;99.90
52030;DHT22;38043;53.224;6.580;2022-07-29T05:45:01;15.40;99.90
52030;DHT22;38043;53.224;6.580;2022-07-29T05:47:27;15.40;99.90
52030;DHT22;38043;53.224;6.580;2022-07-29T05:49:52;15.50;99.90
52030;DHT22;38043;53.224;6.580;2022-07-29T05:52:20;15.50;99.90
52030;DHT22;38043;53.224;6.580;2022-07-29T05:54:46;15.50;99.90
52030;DHT22;38043;53.224;6.580;2022-07-29T05:57:24;15.60;99.90
52030;DHT22;38043;53.224;6.580;2022-07-29T05:59:50;15.60;99.90
52030;DHT22;38043;53.224;6.580;2022-07-29T06:02:17;15.70;99.90
52030;DHT22;38043;53.224;6.580;2022-07-29T06:04:43;15.60;99.90
52030;DHT22;38043;53.224;6.580;2022-07-29T06:07:08;15.70;99.90
52030;DHT22;38043;53.224;6.580;2022-07-29T06:09:37;15.70;99.90
52030;DHT22;38043;53.224;6.580;2022-07-29T06:12:04;15.80;99.90
52030;DHT22;38043;53.224;6.580;2022-07-29T06:14:29;15.80;99.90
52030;DHT22;38043;53.224;6.580;2022-07-29T06:16:55;15.80;99.90
52030;DHT22;38043;53.224;6.580;2022-07-29T06:19:21;15.80;99.90
52030;DHT22;38043;53.224;6.580;2022-07-29T06:21:47;15.90;99.90
52030;DHT22;38043;53.224;6.580;2022-07-29T06:24:15;15.90;99.90
52030;DHT22;38043;53.224;6.580;2022-07-29T06:26:42;15.90;99.90
52030;DHT22;38043;53.224;6.580;2022-07-29T06:29:09;16.00;99.90
52030;DHT22;38043;53.224;6.580;2022-07-29T06:31:38;16.10;99.90
52030;DHT22;38043;53.224;6.580;2022-07-29T06:34:04;16.10;99.90
52030;DHT22;38043;53.224;6.580;2022-07-29T06:36:30;16.20;99.90
52030;DHT22;38043;53.224;6.580;2022-07-29T06:38:56;16.30;99.90
52030;DHT22;38043;53.224;6.580;2022-07-29T06:41:24;16.40;99.90
52030;DHT22;38043;53.224;6.580;2022-07-29T06:43:49;16.40;99.90
52030;DHT22;38043;53.224;6.580;2022-07-29T06:46:18;16.50;99.90
52030;DHT22;38043;53.224;6.580;2022-07-29T06:48:44;16.60;99.90
52030;DHT22;38043;53.224;6.580;2022-07-29T06:51:11;16.70;99.90
52030;DHT22;38043;53.224;6.580;2022-07-29T06:53:40;16.70;99.90
52030;DHT22;38043;53.224;6.580;2022-07-29T06:56:07;16.60;99.90
52030;DHT22;38043;53.224;6.580;2022-07-29T06:58:38;16.70;99.90
52030;DHT22;38043;53.224;6.580;2022-07-29T07:01:07;16.80;99.90
52030;DHT22;38043;53.224;6.580;2022-07-29T07:03:33;16.80;99.90
52030;DHT22;38043;53.224;6.580;2022-07-29T07:06:02;16.90;99.90
52030;DHT22;38043;53.224;6.580;2022-07-29T07:08:28;16.90;99.90
52030;DHT22;38043;53.224;6.580;2022-07-29T07:10:54;17.10;99.90
52030;DHT22;38043;53.224;6.580;2022-07-29T07:13:20;17.10;99.90
52030;DHT22;38043;53.224;6.580;2022-07-29T07:15:47;17.10;99.90
52030;DHT22;38043;53.224;6.580;2022-07-29T07:18:14;17.20;99.90
52030;DHT22;38043;53.224;6.580;2022-07-29T07:20:40;17.20;99.90
52030;DHT22;38043;53.224;6.580;2022-07-29T07:23:09;17.30;99.90
52030;DHT22;38043;53.224;6.580;2022-07-29T07:25:35;17.40;99.90
52030;DHT22;38043;53.224;6.580;2022-07-29T07:28:01;17.40;99.90
52030;DHT22;38043;53.224;6.580;2022-07-29T07:30:26;17.50;99.90
52030;DHT22;38043;53.224;6.580;2022-07-29T07:32:53;17.60;99.90
52030;DHT22;38043;53.224;6.580;2022-07-29T07:35:19;17.50;99.90
52030;DHT22;38043;53.224;6.580;2022-07-29T07:37:45;17.50;99.90
52030;DHT22;38043;53.224;6.580;2022-07-29T07:40:11;17.60;99.90
52030;DHT22;38043;53.224;6.580;2022-07-29T07:42:38;17.70;99.90
52030;DHT22;38043;53.224;6.580;2022-07-29T07:45:05;17.70;99.90
52030;DHT22;38043;53.224;6.580;2022-07-29T07:47:34;17.70;99.90
52030;DHT22;38043;53.224;6.580;2022-07-29T07:50:10;17.80;99.90
52030;DHT22;38043;53.224;6.580;2022-07-29T07:52:56;17.80;99.90
52030;DHT22;38043;53.224;6.580;2022-07-29T07:55:23;17.80;99.90
52030;DHT22;38043;53.224;6.580;2022-07-29T07:57:55;17.80;99.90
52030;DHT22;38043;53.224;6.580;2022-07-29T08:00:21;17.90;99.90
52030;DHT22;38043;53.224;6.580;2022-07-29T08:02:47;18.00;99.90
52030;DHT22;38043;53.224;6.580;2022-07-29T08:05:13;18.00;99.90
52030;DHT22;38043;53.224;6.580;2022-07-29T08:07:46;18.00;99.90
52030;DHT22;38043;53.224;6.580;2022-07-29T08:10:13;18.00;99.90
52030;DHT22;38043;53.224;6.580;2022-07-29T08:12:39;18.00;99.90
52030;DHT22;38043;53.224;6.580;2022-07-29T08:15:05;18.00;99.90
52030;DHT22;38043;53.224;6.580;2022-07-29T08:17:33;18.00;99.90
52030;DHT22;38043;53.224;6.580;2022-07-29T08:19:58;18.00;99.90
52030;DHT22;38043;53.224;6.580;2022-07-29T08:22:24;18.00;99.90
52030;DHT22;38043;53.224;6.580;2022-07-29T08:24:50;18.00;99.90
52030;DHT22;38043;53.224;6.580;2022-07-29T08:27:20;18.10;99.90
52030;DHT22;38043;53.224;6.580;2022-07-29T08:29:48;18.10;99.90
52030;DHT22;38043;53.224;6.580;2022-07-29T08:32:14;18.10;99.90
52030;DHT22;38043;53.224;6.580;2022-07-29T08:34:40;18.10;99.90
52030;DHT22;38043;53.224;6.580;2022-07-29T08:37:06;18.20;99.90
52030;DHT22;38043;53.224;6.580;2022-07-29T08:39:32;18.40;99.90
52030;DHT22;38043;53.224;6.580;2022-07-29T08:41:58;18.50;99.90
52030;DHT22;38043;53.224;6.580;2022-07-29T08:44:23;18.70;99.90
52030;DHT22;38043;53.224;6.580;2022-07-29T08:46:50;18.70;99.90
52030;DHT22;38043;53.224;6.580;2022-07-29T08:49:16;18.80;99.90
52030;DHT22;38043;53.224;6.580;2022-07-29T08:51:43;18.80;99.90
52030;DHT22;38043;53.224;6.580;2022-07-29T08:54:09;18.80;99.90
52030;DHT22;38043;53.224;6.580;2022-07-29T08:56:36;18.80;99.90
52030;DHT22;38043;53.224;6.580;2022-07-29T08:59:04;18.70;99.90
52030;DHT22;38043;53.224;6.580;2022-07-29T09:01:33;18.80;99.90
52030;DHT22;38043;53.224;6.580;2022-07-29T09:03:59;18.70;99.80
52030;DHT22;38043;53.224;6.580;2022-07-29T09:06:32;18.70;99.80
52030;DHT22;38043;53.224;6.580;2022-07-29T09:09:00;18.70;99.90
52030;DHT22;38043;53.224;6.580;2022-07-29T09:11:26;18.70;99.90
52030;DHT22;38043;53.224;6.580;2022-07-29T09:13:53;18.80;99.90
52030;DHT22;38043;53.224;6.580;2022-07-29T09:16:18;18.90;99.90
52030;DHT22;38043;53.224;6.580;2022-07-29T09:18:45;18.90;99.90
52030;DHT22;38043;53.224;6.580;2022-07-29T09:21:14;18.90;99.90
52030;DHT22;38043;53.224;6.580;2022-07-29T09:24:10;18.90;99.90
52030;DHT22;38043;53.224;6.580;2022-07-29T09:26:42;19.00;99.90
52030;DHT22;38043;53.224;6.580;2022-07-29T09:29:09;19.00;99.90
52030;DHT22;38043;53.224;6.580;2022-07-29T09:31:38;19.10;99.90
52030;DHT22;38043;53.224;6.580;2022-07-29T09:34:05;19.10;99.90
52030;DHT22;38043;53.224;6.580;2022-07-29T09:36:48;19.10;99.90
52030;DHT22;38043;53.224;6.580;2022-07-29T09:39:15;19.10;99.70
52030;DHT22;38043;53.224;6.580;2022-07-29T09:41:53;19.10;99.90
52030;DHT22;38043;53.224;6.580;2022-07-29T09:44:20;19.10;99.90
52030;DHT22;38043;53.224;6.580;2022-07-29T09:47:12;19.10;99.90
52030;DHT22;38043;53.224;6.580;2022-07-29T09:49:57;19.10;99.60
52030;DHT22;38043;53.224;6.580;2022-07-29T09:52:24;19.10;99.60
52030;DHT22;38043;53.224;6.580;2022-07-29T09:54:50;19.00;99.90
52030;DHT22;38043;53.224;6.580;2022-07-29T09:57:26;19.10;99.90
52030;DHT22;38043;53.224;6.580;2022-07-29T10:02:32;19.10;99.90
52030;DHT22;38043;53.224;6.580;2022-07-29T10:05:00;19.10;99.90
52030;DHT22;38043;53.224;6.580;2022-07-29T10:07:28;19.20;99.90
52030;DHT22;38043;53.224;6.580;2022-07-29T10:10:10;19.20;99.90
52030;DHT22;38043;53.224;6.580;2022-07-29T10:12:49;19.30;99.90
52030;DHT22;38043;53.224;6.580;2022-07-29T10:15:15;19.30;99.90
52030;DHT22;38043;53.224;6.580;2022-07-29T10:17:41;19.30;99.90
52030;DHT22;38043;53.224;6.580;2022-07-29T10:20:08;19.40;99.70
52030;DHT22;38043;53.224;6.580;2022-07-29T10:22:34;19.30;99.80
52030;DHT22;38043;53.224;6.580;2022-07-29T10:25:00;19.40;99.90
52030;DHT22;38043;53.224;6.580;2022-07-29T10:27:29;19.50;99.90
52030;DHT22;38043;53.224;6.580;2022-07-29T10:29:55;19.50;99.90
52030;DHT22;38043;53.224;6.580;2022-07-29T10:35:37;19.60;99.90
52030;DHT22;38043;53.224;6.580;2022-07-29T10:41:43;19.70;99.90
52030;DHT22;38043;53.224;6.580;2022-07-29T10:44:17;19.80;99.50
52030;DHT22;38043;53.224;6.580;2022-07-29T10:46:44;19.80;99.70
52030;DHT22;38043;53.224;6.580;2022-07-29T10:49:18;19.80;99.70
52030;DHT22;38043;53.224;6.580;2022-07-29T10:59:37;19.90;99.30
52030;DHT22;38043;53.224;6.580;2022-07-29T11:05:07;19.80;99.70
52030;DHT22;38043;53.224;6.580;2022-07-29T11:07:38;19.80;99.90
52030;DHT22;38043;53.224;6.580;2022-07-29T11:15:06;19.70;99.90
52030;DHT22;38043;53.224;6.580;2022-07-29T11:20:45;19.80;99.90
52030;DHT22;38043;53.224;6.580;2022-07-29T11:34:27;19.90;99.90
52030;DHT22;38043;53.224;6.580;2022-07-29T11:44:58;20.30;99.90
52030;DHT22;38043;53.224;6.580;2022-07-29T11:47:28;20.50;99.90
52030;DHT22;38043;53.224;6.580;2022-07-29T11:50:02;20.70;99.70
52030;DHT22;38043;53.224;6.580;2022-07-29T11:52:46;21.00;99.10
52030;DHT22;38043;53.224;6.580;2022-07-29T11:55:20;21.20;99.10
52030;DHT22;38043;53.224;6.580;2022-07-29T11:57:55;21.30;98.80
52030;DHT22;38043;53.224;6.580;2022-07-29T12:00:40;21.40;98.60
52030;DHT22;38043;53.224;6.580;2022-07-29T12:03:09;21.60;98.50
52030;DHT22;38043;53.224;6.580;2022-07-29T12:05:39;21.70;98.30
52030;DHT22;38043;53.224;6.580;2022-07-29T12:08:09;21.80;98.40
52030;DHT22;38043;53.224;6.580;2022-07-29T12:10:35;21.90;98.20
52030;DHT22;38043;53.224;6.580;2022-07-29T12:13:01;22.00;98.00
52030;DHT22;38043;53.224;6.580;2022-07-29T12:15:27;22.20;97.90
52030;DHT22;38043;53.224;6.580;2022-07-29T12:17:52;22.30;97.30
52030;DHT22;38043;53.224;6.580;2022-07-29T12:20:23;22.50;97.40
52030;DHT22;38043;53.224;6.580;2022-07-29T12:22:52;22.50;97.10
52030;DHT22;38043;53.224;6.580;2022-07-29T12:25:19;22.60;97.20
52030;DHT22;38043;53.224;6.580;2022-07-29T12:27:45;22.70;97.00
52030;DHT22;38043;53.224;6.580;2022-07-29T12:30:15;22.90;97.00
52030;DHT22;38043;53.224;6.580;2022-07-29T12:32:44;22.90;96.70
52030;DHT22;38043;53.224;6.580;2022-07-29T12:35:18;22.90;96.40
52030;DHT22;38043;53.224;6.580;2022-07-29T12:37:46;22.90;96.00
52030;DHT22;38043;53.224;6.580;2022-07-29T12:40:17;22.80;95.80
52030;DHT22;38043;53.224;6.580;2022-07-29T12:45:32;22.90;94.80
52030;DHT22;38043;53.224;6.580;2022-07-29T12:47:58;22.80;94.70
52030;DHT22;38043;53.224;6.580;2022-07-29T12:50:24;22.90;95.30
52030;DHT22;38043;53.224;6.580;2022-07-29T12:52:50;22.90;94.90
52030;DHT22;38043;53.224;6.580;2022-07-29T12:58:04;23.00;93.40
52030;DHT22;38043;53.224;6.580;2022-07-29T13:00:30;23.00;93.50
52030;DHT22;38043;53.224;6.580;2022-07-29T13:02:57;23.10;93.80
52030;DHT22;38043;53.224;6.580;2022-07-29T13:05:23;23.30;94.00
52030;DHT22;38043;53.224;6.580;2022-07-29T13:07:53;23.50;93.70
52030;DHT22;38043;53.224;6.580;2022-07-29T13:10:20;23.70;93.60
52030;DHT22;38043;53.224;6.580;2022-07-29T13:15:28;24.40;91.80
52030;DHT22;38043;53.224;6.580;2022-07-29T13:17:54;24.50;92.00
52030;DHT22;38043;53.224;6.580;2022-07-29T13:20:24;24.60;91.40
52030;DHT22;38043;53.224;6.580;2022-07-29T13:22:50;24.80;91.50
52030;DHT22;38043;53.224;6.580;2022-07-29T13:25:25;24.80;91.50
52030;DHT22;38043;53.224;6.580;2022-07-29T13:27:51;25.10;91.60
52030;DHT22;38043;53.224;6.580;2022-07-29T13:30:17;25.40;90.90
52030;DHT22;38043;53.224;6.580;2022-07-29T13:32:42;25.60;90.10
52030;DHT22;38043;53.224;6.580;2022-07-29T13:35:08;25.80;88.60
52030;DHT22;38043;53.224;6.580;2022-07-29T13:37:35;26.10;86.40
52030;DHT22;38043;53.224;6.580;2022-07-29T13:40:04;26.40;85.60
52030;DHT22;38043;53.224;6.580;2022-07-29T13:42:32;26.70;85.00
52030;DHT22;38043;53.224;6.580;2022-07-29T13:44:58;27.10;84.90
52030;DHT22;38043;53.224;6.580;2022-07-29T13:47:24;27.40;84.50
52030;DHT22;38043;53.224;6.580;2022-07-29T13:49:53;27.80;83.20
52030;DHT22;38043;53.224;6.580;2022-07-29T13:52:19;27.80;79.00
52030;DHT22;38043;53.224;6.580;2022-07-29T13:54:47;28.10;78.80
52030;DHT22;38043;53.224;6.580;2022-07-29T13:57:14;28.20;77.40
52030;DHT22;38043;53.224;6.580;2022-07-29T13:59:43;28.20;75.90
52030;DHT22;38043;53.224;6.580;2022-07-29T14:02:10;28.40;76.20
52030;DHT22;38043;53.224;6.580;2022-07-29T14:04:36;28.50;75.10
52030;DHT22;38043;53.224;6.580;2022-07-29T14:07:05;28.60;73.90
52030;DHT22;38043;53.224;6.580;2022-07-29T14:09:31;28.70;72.20
52030;DHT22;38043;53.224;6.580;2022-07-29T14:12:00;28.80;71.70
52030;DHT22;38043;53.224;6.580;2022-07-29T14:14:26;28.90;71.10
52030;DHT22;38043;53.224;6.580;2022-07-29T14:16:52;29.10;70.30
52030;DHT22;38043;53.224;6.580;2022-07-29T14:19:17;29.30;69.60
52030;DHT22;38043;53.224;6.580;2022-07-29T14:21:43;29.60;68.80
52030;DHT22;38043;53.224;6.580;2022-07-29T14:24:09;29.70;67.40
52030;DHT22;38043;53.224;6.580;2022-07-29T14:26:35;29.70;66.00
52030;DHT22;38043;53.224;6.580;2022-07-29T14:29:00;29.80;66.40
52030;DHT22;38043;53.224;6.580;2022-07-29T14:31:26;29.80;65.80
52030;DHT22;38043;53.224;6.580;2022-07-29T14:33:52;30.10;65.70
52030;DHT22;38043;53.224;6.580;2022-07-29T14:36:18;30.40;65.30
52030;DHT22;38043;53.224;6.580;2022-07-29T14:38:43;30.30;64.40
52030;DHT22;38043;53.224;6.580;2022-07-29T14:41:09;30.60;64.90
52030;DHT22;38043;53.224;6.580;2022-07-29T14:43:35;30.40;64.40
52030;DHT22;38043;53.224;6.580;2022-07-29T14:46:04;30.20;65.00
52030;DHT22;38043;53.224;6.580;2022-07-29T14:48:29;29.60;64.40
52030;DHT22;38043;53.224;6.580;2022-07-29T14:50:55;29.70;64.40
52030;DHT22;38043;53.224;6.580;2022-07-29T14:53:21;29.70;65.00
52030;DHT22;38043;53.224;6.580;2022-07-29T14:55:47;30.00;65.80
52030;DHT22;38043;53.224;6.580;2022-07-29T14:58:13;30.20;64.90
52030;DHT22;38043;53.224;6.580;2022-07-29T15:00:39;30.10;65.00
52030;DHT22;38043;53.224;6.580;2022-07-29T15:03:05;29.70;65.70
52030;DHT22;38043;53.224;6.580;2022-07-29T15:05:31;29.20;65.60
52030;DHT22;38043;53.224;6.580;2022-07-29T15:07:57;29.00;66.10
52030;DHT22;38043;53.224;6.580;2022-07-29T15:10:24;28.80;65.90
52030;DHT22;38043;53.224;6.580;2022-07-29T15:12:52;28.50;65.50
52030;DHT22;38043;53.224;6.580;2022-07-29T15:15:17;28.10;66.20
52030;DHT22;38043;53.224;6.580;2022-07-29T15:17:43;27.70;66.80
52030;DHT22;38043;53.224;6.580;2022-07-29T15:20:09;27.00;66.90
52030;DHT22;38043;53.224;6.580;2022-07-29T15:22:35;26.50;67.60
52030;DHT22;38043;53.224;6.580;2022-07-29T15:25:02;26.10;68.00
52030;DHT22;38043;53.224;6.580;2022-07-29T15:27:28;25.80;68.20
52030;DHT22;38043;53.224;6.580;2022-07-29T15:29:53;25.70;68.20
52030;DHT22;38043;53.224;6.580;2022-07-29T15:32:19;25.60;68.40
52030;DHT22;38043;53.224;6.580;2022-07-29T15:34:45;25.40;68.30
52030;DHT22;38043;53.224;6.580;2022-07-29T15:37:10;25.30;68.00
52030;DHT22;38043;53.224;6.580;2022-07-29T15:39:36;25.20;68.40
52030;DHT22;38043;53.224;6.580;2022-07-29T15:42:04;25.10;68.50
52030;DHT22;38043;53.224;6.580;2022-07-29T15:44:30;25.00;68.20
52030;DHT22;38043;53.224;6.580;2022-07-29T15:46:56;24.90;68.70
52030;DHT22;38043;53.224;6.580;2022-07-29T15:49:33;24.80;69.10
52030;DHT22;38043;53.224;6.580;2022-07-29T15:52:01;24.80;69.60
52030;DHT22;38043;53.224;6.580;2022-07-29T15:54:28;24.80;70.00
52030;DHT22;38043;53.224;6.580;2022-07-29T15:56:54;24.70;70.30
52030;DHT22;38043;53.224;6.580;2022-07-29T15:59:20;24.60;70.30
52030;DHT22;38043;53.224;6.580;2022-07-29T16:01:47;24.60;70.00
52030;DHT22;38043;53.224;6.580;2022-07-29T16:04:13;24.60;70.00
52030;DHT22;38043;53.224;6.580;2022-07-29T16:06:39;24.60;70.10
52030;DHT22;38043;53.224;6.580;2022-07-29T16:09:05;24.50;70.60
52030;DHT22;38043;53.224;6.580;2022-07-29T16:11:38;24.50;71.10
52030;DHT22;38043;53.224;6.580;2022-07-29T16:14:04;24.50;70.50
52030;DHT22;38043;53.224;6.580;2022-07-29T16:16:30;24.40;70.30
52030;DHT22;38043;53.224;6.580;2022-07-29T16:18:56;24.40;70.60
52030;DHT22;38043;53.224;6.580;2022-07-29T16:21:22;24.40;70.90
52030;DHT22;38043;53.224;6.580;2022-07-29T16:23:48;24.30;71.50
52030;DHT22;38043;53.224;6.580;2022-07-29T16:26:13;24.30;72.20
52030;DHT22;38043;53.224;6.580;2022-07-29T16:28:39;24.30;72.50
52030;DHT22;38043;53.224;6.580;2022-07-29T16:31:05;24.30;72.80
52030;DHT22;38043;53.224;6.580;2022-07-29T16:33:31;24.20;72.90
52030;DHT22;38043;53.224;6.580;2022-07-29T16:36:00;24.20;72.70
52030;DHT22;38043;53.224;6.580;2022-07-29T16:38:26;24.20;73.00
52030;DHT22;38043;53.224;6.580;2022-07-29T16:40:51;24.10;73.30